Senneterre, Canada
Current Conditions -  °F | °C
As of 2:00 PM on Thursday 18 Dec 2014 (Local Time) from CYVO Reporting Station
Light Snow Light Snow  
Wind Chill:   Ceiling: 1000
Heat Index: 14°   Visibility: 8mi
Dew Point: 12°   Wind: 9mph
Humidity: 93%   Direction: 330°NNW
Pressure: 30.04"   Gusts: NA
Location:  48.4°N, 77.25°W
Report Text: CYVO 181900Z 33008KT 8SM -SN OVC010 M10/M11 A3004 RMK SC8 SLP201
Loading
Personal Weather Stations






























Interactive Weather Map New forecast layout! Learn more

10-Day Weather Forecast

Advertisements
Track Severe Weather on mobile